Skip to main content

NOAA/GLERL Met Station at Muskegon Pier Light, MI

Previous 5 days (top of hour only)
See also Previous 3 Hours (2 minute increments)
Jump down to Data
Switch to [English][Metric]
Zoom: Click and drag, Pan: shift-click and drag, Unzoom: double-click, Unzoom All





Note: Speed = mean wind during 2-minute period at top of hour,
Gust = max wind during 2-minute period at top of hour,
Peak = max wind during entire hour.
• See also 5-day windrose plot


NOAA/GLERL Met Station at Muskegon Pier Light, MI

Previous 5 days (top of hour only)
See also Previous 3 Hours (2 minute increments)
Jump up to Graphs
Switch to [English][Metric]
                  Wind  Wind  Wind   Air   Dew   Rel     Sta
                   Spd   Gst   Dir  Temp    Pt   Hum    Pres
YYYY-MM-DD   EDT   kts   kts   deg     F     F     %   in Hg
2024-04-21 10:00  14.6  15.6   254  39.7  31.6  72.5   29.43
2024-04-21 09:00  12.8  14.2   250  39.7  31.3  71.4   29.43
2024-04-21 08:00  13.6  14.6   258  39.4  30.0  69.2   29.43
2024-04-21 07:00  13.0  14.6   266  38.7  29.8  70.2   29.42
2024-04-21 06:00  13.0  14.6   276  39.0  28.0  64.5   29.42
2024-04-21 05:00  14.0  15.9   291  39.0  25.9  58.9   29.43
2024-04-21 04:00  14.8  17.7   307  39.4  21.4  48.1   29.43
2024-04-21 03:00  16.1  22.0   308  39.4  24.8  55.2   29.42
2024-04-21 02:00  16.1  17.7   306  39.2  25.5  57.8   29.43
2024-04-21 01:00  18.5  20.0   303  39.4  25.9  58.1   29.44
2024-04-21 00:00  18.1  19.6   296  39.4  24.8  55.5   29.46
2024-04-20 23:00  14.8  16.3   310  39.4  26.2  58.9   29.46
2024-04-20 22:00   8.6  11.7   293  39.2  24.3  54.4   29.46
2024-04-20 21:00   8.4   9.7   270  39.2  26.2  59.5   29.46
2024-04-20 20:00   6.8   7.8   231  38.8  25.0  57.0   29.46
2024-04-20 19:00   8.4   9.3   287  39.7  23.0  50.8   29.47
2024-04-20 18:00   8.6   9.9   262  39.4  24.8  55.7   29.49
2024-04-20 17:00  12.8  15.0   282  39.7  25.3  56.2   29.48
2024-04-20 16:00  15.0  17.3   280  39.6  23.7  52.8   29.48
2024-04-20 15:00  17.3  18.7   270  38.8  23.5  53.7   29.49
2024-04-20 14:00  16.9  19.1   280  38.7  24.4  56.2   29.48
2024-04-20 13:00  13.8  16.1   285  38.1  27.0  63.5   29.48
2024-04-20 12:00  17.9  19.4   293  38.1  27.3  64.6   29.48
2024-04-20 11:00  20.4  22.0   294  37.9  27.5  65.6   29.46
2024-04-20 10:00  20.2  22.2   289  37.6  27.7  67.0   29.45
2024-04-20 09:00  22.7  25.1   290  38.1  27.5  65.1   29.43
2024-04-20 08:00  25.5  29.4   288  37.9  27.0  64.3   29.41
2024-04-20 07:00  23.9  27.6   288  37.8  24.6  58.9   29.39
2024-04-20 06:00  25.1  27.6   289  37.9  24.4  57.9   29.37
2024-04-20 05:00  22.2  25.9   283  38.7  25.9  59.9   29.38
2024-04-20 04:00  25.5  28.0   294  38.8  23.0  52.4   29.36
2024-04-20 03:00  25.7  28.8   291  39.4  22.8  51.0   29.36
2024-04-20 02:00  21.8  24.3   300  39.2  25.2  56.7   29.38
2024-04-20 01:00  28.0  30.5   311  39.9  24.6  53.9   29.37
2024-04-20 00:00  27.0  29.5   324  41.0  28.9  62.1   29.36
2024-04-19 23:00  18.3  21.8   325  43.7  29.3  56.6   29.34
2024-04-19 22:00  15.6  18.9   284  44.6  35.6  70.6   29.32
2024-04-19 21:00  10.5  11.5   243  45.1  35.8  69.8   29.31
2024-04-19 20:00  12.2  13.6   200  44.4  37.6  76.8   29.31
2024-04-19 19:00  15.9  16.7   178  43.5  35.6  73.5   29.31
2024-04-19 18:00  11.5  12.4   188  44.1  33.3  65.6   29.31
2024-04-19 17:00  11.3  12.6   190  43.2  35.1  72.7   29.33
2024-04-19 16:00  11.3  12.1   211  43.0  31.6  64.0   29.36
2024-04-19 15:00  10.5  11.9   240  42.8  33.1  68.7   29.36
2024-04-19 14:00  12.6  14.2   248  41.9  29.1  60.0   29.36
2024-04-19 13:00  15.7  16.7   256  41.5  28.4  59.4   29.36
2024-04-19 12:00  18.9  20.0   275  41.9  26.6  54.2   29.36
2024-04-19 11:00  17.7  20.0   270  41.4  30.0  63.7   29.36
2024-04-19 10:00  16.1  17.1   287  43.0  29.7  59.4   29.36
2024-04-19 09:00  15.9  17.7   294  43.3  30.0  59.3   29.35
2024-04-19 08:00  19.6  21.6   307  43.2  31.1  62.0   29.34
2024-04-19 07:00  27.2  31.9   315  42.8  32.2  66.0   29.31
2024-04-19 06:00  24.1  27.2   315  44.1  34.3  68.1   29.29
2024-04-19 05:00  22.2  25.1   316  45.1  36.5  71.6   29.28
2024-04-19 04:00   9.7  11.1   296  44.2  43.9  98.6   29.26
2024-04-19 03:00   7.2   7.6   296  45.0  41.9  89.2   29.27
2024-04-19 02:00   4.9   5.4   310  45.3  43.9  94.7   29.28
2024-04-19 01:00   2.1   2.7   357  44.6  43.5  95.4   29.29
2024-04-19 00:00   6.4   6.6   320  45.1  43.5  94.0   29.31
2024-04-18 23:00   3.9   4.5   287  45.0  43.2  93.1   29.33
2024-04-18 22:00   3.5   4.1    37  44.6  43.5  96.1   29.32
2024-04-18 21:00   7.4   8.6   285  45.3  43.2  91.7   29.36
2024-04-18 20:00   8.7   9.3   302  45.1  43.3  93.0   29.35
2024-04-18 19:00   4.3   4.7   308  45.5  43.2  91.6   29.32
2024-04-18 18:00   5.2   5.6   300  45.5  43.0  91.0   29.33
2024-04-18 17:00   5.4   5.8   277  45.0  43.0  92.3   29.33
2024-04-18 16:00   5.2   5.6   197  45.3  43.7  93.5   29.33
2024-04-18 15:00   2.5   2.9   217  45.5  42.8  90.6   29.35
2024-04-18 14:00   6.8   7.2   199  44.2  42.6  94.3   29.40
2024-04-18 13:00   2.3   2.9   312  45.7  43.2  90.6   29.39
2024-04-18 12:00   6.6   7.8   242  45.3  42.3  89.1   29.41
2024-04-18 11:00   8.9  10.1   319  46.0  42.4  87.0   29.39
2024-04-18 10:00   8.9  11.3   273  45.5  42.1  87.6   29.37
2024-04-18 09:00   9.1  10.1   265  44.8  41.5  88.0   29.38
2024-04-18 08:00  13.4  15.0   280  45.9  41.4  83.9   29.35
2024-04-18 07:00   6.0   6.8   272  44.2  42.4  92.8   29.32
2024-04-18 06:00   8.9  10.1   284  44.8  42.4  91.0   29.28
2024-04-18 05:00   5.2   5.8   288  44.2  43.0  95.1   29.27
2024-04-18 04:00   3.3   3.9   279  44.6  42.6  92.7   29.25
2024-04-18 03:00  10.5  11.7   278  45.1  43.0  91.9   29.24
2024-04-18 02:00  11.5  12.4   271  45.5  43.2  91.5   29.23
2024-04-18 01:00  17.3  19.2   276  47.5  42.6  83.2   29.21
2024-04-18 00:00  15.2  16.7   270  46.9  43.2  86.7   29.19
2024-04-17 23:00   7.0   8.0   285  46.0  43.7  91.5   29.18
2024-04-17 22:00   8.7  10.3   266  46.6  44.2  91.5   29.15
2024-04-17 21:00  10.1  10.9   261  46.4  44.1  91.6   29.10
2024-04-17 20:00  10.7  11.9   237  46.9  44.8  92.3   29.05
2024-04-17 19:00  12.6  13.4   238  47.7  45.9  93.5   29.02
2024-04-17 18:00  20.8  22.7   214  49.3  47.1  92.2   28.96
2024-04-17 17:00  16.5  18.1   205  48.6  47.3  95.6   28.94
2024-04-17 16:00  15.0  16.7   203  47.8  47.3  98.2   28.94
2024-04-17 15:00  14.6  16.1   196  47.8  45.7  92.2   28.93
2024-04-17 14:00  10.9  11.9   192  48.6  46.4  92.4   28.91
2024-04-17 13:00  11.5  12.2   172  48.4  48.4 100.1   28.89
2024-04-17 12:00  12.4  13.8   204  48.9  48.9  99.9   28.89
2024-04-17 11:00  21.0  22.4   149  57.7  55.8  92.9   28.87
2024-04-17 10:00  11.9  15.6   116  60.1  57.7  92.0   28.89
2024-04-17 09:00  14.6  16.7    70  54.9  53.2  93.8   28.91
2024-04-17 08:00  13.8  17.5    53  51.3  49.6  93.9   28.94
2024-04-17 07:00   9.7  12.1    71  51.8  50.0  93.1   28.98
2024-04-17 06:00  12.4  15.0   339  50.2  46.9  88.7   29.01
2024-04-17 05:00  14.2  17.3    59  54.7  46.6  73.8   28.99
2024-04-17 04:00  14.6  19.1    78  54.0  45.7  73.0   29.02
2024-04-17 03:00  16.9  20.8    85  52.7  45.7  77.0   29.04
2024-04-17 02:00  17.5  23.5    87  53.8  45.5  73.3   29.08
2024-04-17 01:00  15.0  19.6    92  56.3  45.0  66.0   29.12
2024-04-17 00:00  16.5  22.7    96  61.2  41.9  49.2   29.13
2024-04-16 23:00  18.9  25.1    93  60.4  41.4  49.2   29.12
2024-04-16 22:00  20.6  28.6    87  60.6  41.4  49.0   29.10
2024-04-16 21:00  15.7  22.4    78  62.1  43.3  50.1   29.11
2024-04-16 20:00  19.8  23.3   102  66.6  39.2  36.5   29.20